Time;durP1;ratioP1;P1;durP2;ratioP2;P2;SDS_P1;SDS_P2;PMS_P1;PMS_P2;Temp;Humidity;BMP_temperature;BMP_pressure;BME280_temperature;BME280_humidity;BME280_pressure;Samples;Min_cycle;Max_cycle;Signal;HPM_P1;HPM_P2
2023/04/21 00:02:26;;;;;;;12.48;10.65;;;17.30;49.50;;;;;;5033318;28;20191;-53
2023/04/21 00:04:55;;;;;;;13.30;10.85;;;17.20;49.50;;;;;;5015656;28;20265;-53
2023/04/21 00:07:22;;;;;;;14.43;11.25;;;17.20;49.40;;;;;;5015272;28;20585;-54
2023/04/21 00:09:50;;;;;;;13.00;10.50;;;17.20;49.50;;;;;;5033035;28;20198;-54
2023/04/21 00:12:17;;;;;;;14.25;10.52;;;17.20;49.50;;;;;;5015102;28;20220;-53
2023/04/21 00:14:43;;;;;;;13.23;10.43;;;17.20;49.40;;;;;;5015230;28;20204;-53
2023/04/21 00:17:11;;;;;;;12.07;10.07;;;17.20;49.70;;;;;;5015142;28;20224;-53
2023/04/21 00:19:40;;;;;;;13.13;10.27;;;17.10;49.60;;;;;;5015175;28;20204;-53
2023/04/21 00:22:11;;;;;;;11.60;9.80;;;17.10;49.80;;;;;;5032964;28;20268;-54
2023/04/21 00:24:38;;;;;;;11.25;9.85;;;17.10;49.80;;;;;;5016185;28;20203;-54
2023/04/21 00:27:05;;;;;;;13.73;10.20;;;17.10;49.90;;;;;;5014972;28;20230;-54
2023/04/21 00:29:33;;;;;;;13.05;10.07;;;17.00;49.70;;;;;;5015183;28;20304;-53
2023/04/21 00:32:00;;;;;;;12.43;10.05;;;17.00;49.80;;;;;;5015133;28;20212;-53
2023/04/21 00:34:28;;;;;;;12.75;10.35;;;17.00;49.90;;;;;;5033248;28;20489;-54
2023/04/21 00:36:56;;;;;;;12.73;9.75;;;17.00;49.90;;;;;;5015506;28;20249;-54
2023/04/21 00:39:23;;;;;;;11.00;9.82;;;16.90;49.90;;;;;;5015435;28;20200;-53
2023/04/21 00:41:50;;;;;;;11.82;9.95;;;16.90;50.00;;;;;;5014921;28;20196;-53
2023/04/21 00:44:17;;;;;;;11.88;9.98;;;16.90;49.90;;;;;;5015222;28;20673;-53
2023/04/21 00:46:45;;;;;;;11.45;9.52;;;16.90;49.90;;;;;;5053289;22;20208;-80
2023/04/21 00:49:12;;;;;;;12.27;10.18;;;16.90;49.90;;;;;;5040233;28;20202;-80
2023/04/21 00:51:39;;;;;;;13.25;9.90;;;16.80;49.80;;;;;;5040284;28;20302;-79
2023/04/21 00:54:08;;;;;;;10.93;9.55;;;16.80;49.90;;;;;;5041268;28;20242;-80
2023/04/21 00:56:35;;;;;;;10.93;9.48;;;16.90;49.90;;;;;;5059519;28;20249;-80
2023/04/21 00:59:03;;;;;;;11.10;9.77;;;16.80;49.90;;;;;;5040650;28;20204;-80
2023/04/21 01:01:30;;;;;;;10.73;9.15;;;16.80;49.90;;;;;;5057947;28;20184;-79
2023/04/21 01:04:00;;;;;;;10.05;9.00;;;16.80;49.70;;;;;;5040104;28;20705;-79
2023/04/21 01:06:28;;;;;;;11.25;9.40;;;16.80;49.70;;;;;;5040043;28;20230;-79
2023/04/21 01:08:57;;;;;;;10.50;8.95;;;16.80;49.50;;;;;;5039525;28;20206;-79
2023/04/21 01:11:25;;;;;;;12.07;9.82;;;16.80;49.50;;;;;;5023319;28;20211;-79
2023/04/21 01:13:53;;;;;;;10.50;9.23;;;16.80;49.40;;;;;;5039968;28;20230;-79
2023/04/21 01:16:21;;;;;;;10.68;9.13;;;16.80;49.30;;;;;;5039978;28;20569;-79
2023/04/21 01:18:49;;;;;;;11.27;8.82;;;16.80;49.10;;;;;;5040673;28;20202;-79
2023/04/21 01:21:17;;;;;;;11.13;9.05;;;16.80;49.10;;;;;;5039342;28;20194;-79
2023/04/21 01:23:46;;;;;;;10.80;9.48;;;16.80;49.00;;;;;;5039504;28;20306;-79
2023/04/21 01:26:13;;;;;;;9.80;8.75;;;16.80;48.90;;;;;;5040439;28;20192;-79
2023/04/21 01:28:40;;;;;;;10.65;9.52;;;16.80;48.80;;;;;;5040704;28;20235;-79
2023/04/21 01:31:08;;;;;;;10.18;8.32;;;16.80;48.70;;;;;;5023376;28;20219;-79
2023/04/21 01:33:37;;;;;;;9.50;8.50;;;16.80;48.80;;;;;;5039603;28;20234;-79
2023/04/21 01:36:04;;;;;;;9.63;8.57;;;16.90;48.70;;;;;;5023358;28;20195;-79
2023/04/21 01:38:31;;;;;;;11.52;8.68;;;16.80;48.60;;;;;;5039584;28;20223;-79
2023/04/21 01:41:00;;;;;;;12.00;9.07;;;16.80;48.60;;;;;;5039753;28;20199;-79
2023/04/21 01:43:28;;;;;;;9.20;8.30;;;16.70;48.60;;;;;;5039300;28;20218;-79
2023/04/21 01:45:56;;;;;;;10.35;8.77;;;16.80;48.60;;;;;;5023127;28;20192;-79
2023/04/21 01:48:23;;;;;;;9.10;8.20;;;16.80;48.60;;;;;;5040134;28;20211;-79
2023/04/21 01:50:50;;;;;;;11.10;8.75;;;16.80;48.60;;;;;;5039868;28;20211;-79
2023/04/21 01:53:18;;;;;;;9.27;8.30;;;16.80;48.60;;;;;;5057800;28;20203;-79
2023/04/21 01:55:45;;;;;;;9.95;8.73;;;16.70;48.60;;;;;;5057534;28;20199;-79
2023/04/21 01:58:14;;;;;;;9.95;8.18;;;16.70;48.50;;;;;;5023167;28;20203;-79
2023/04/21 02:00:41;;;;;;;8.98;8.07;;;16.70;48.50;;;;;;5039792;28;20719;-79
2023/04/21 02:03:08;;;;;;;11.77;8.15;;;16.70;48.60;;;;;;5039444;28;20276;-79
2023/04/21 02:05:35;;;;;;;8.95;8.05;;;16.70;48.60;;;;;;5039142;28;20203;-79
2023/04/21 02:08:02;;;;;;;10.95;8.65;;;16.70;48.70;;;;;;5022782;28;20654;-79
2023/04/21 02:10:30;;;;;;;9.70;8.52;;;16.60;48.50;;;;;;5022516;28;20282;-79
2023/04/21 02:12:57;;;;;;;8.85;7.95;;;16.60;48.40;;;;;;5038924;28;20693;-79
2023/04/21 02:15:25;;;;;;;9.70;8.80;;;16.70;48.50;;;;;;5038813;28;20195;-79
2023/04/21 02:17:55;;;;;;;9.35;8.13;;;16.60;48.40;;;;;;5039341;28;20218;-79
2023/04/21 02:20:44;;;;;;;8.98;8.07;;;16.60;48.40;;;;;;5056023;28;20183;-78
2023/04/21 02:23:11;;;;;;;8.45;7.65;;;16.60;48.40;;;;;;5038099;28;20564;-78
2023/04/21 02:25:38;;;;;;;8.57;7.40;;;16.60;48.40;;;;;;5038006;28;20199;-78
2023/04/21 02:28:05;;;;;;;8.98;8.07;;;16.60;48.30;;;;;;5038612;28;20666;-78
2023/04/21 02:30:34;;;;;;;9.13;8.23;;;16.60;48.40;;;;;;5038223;28;20211;-78
2023/04/21 02:33:01;;;;;;;8.65;7.85;;;16.50;48.20;;;;;;5021887;28;20229;-79
2023/04/21 02:35:28;;;;;;;9.10;7.95;;;16.50;48.20;;;;;;5038309;28;20204;-79
2023/04/21 02:37:57;;;;;;;9.32;7.90;;;16.50;48.20;;;;;;5037679;28;20254;-79
2023/04/21 02:40:25;;;;;;;8.38;7.22;;;16.50;48.20;;;;;;5038319;28;20206;-79
2023/04/21 02:42:52;;;;;;;8.90;7.70;;;16.50;48.20;;;;;;5037969;28;20576;-79
2023/04/21 02:45:19;;;;;;;9.18;7.72;;;16.50;48.70;;;;;;5037876;28;20257;-79
2023/04/21 02:47:48;;;;;;;8.75;7.85;;;16.50;48.10;;;;;;5037670;28;20199;-79
2023/04/21 02:50:15;;;;;;;8.10;7.30;;;16.50;48.10;;;;;;5037791;28;20206;-79
2023/04/21 02:52:42;;;;;;;9.13;7.93;;;16.50;48.90;;;;;;5037561;28;20233;-79
2023/04/21 02:55:09;;;;;;;7.95;7.15;;;16.40;48.20;;;;;;5037943;28;20218;-79
2023/04/21 02:57:37;;;;;;;8.23;7.32;;;16.40;48.20;;;;;;5037680;28;20317;-79
2023/04/21 03:00:06;;;;;;;8.40;7.60;;;16.40;48.20;;;;;;5038990;28;20196;-79
2023/04/21 03:02:33;;;;;;;8.20;7.40;;;16.40;48.30;;;;;;5037577;28;20725;-79
2023/04/21 03:05:03;;;;;;;8.75;7.85;;;16.40;48.20;;;;;;5037412;28;20252;-79
2023/04/21 03:07:30;;;;;;;7.85;7.15;;;16.40;48.30;;;;;;5037544;28;20191;-79
2023/04/21 03:09:58;;;;;;;8.95;8.15;;;16.30;48.20;;;;;;5036457;28;20231;-79
2023/04/21 03:12:25;;;;;;;8.70;7.80;;;16.30;48.10;;;;;;5036924;28;20228;-79
2023/04/21 03:14:51;;;;;;;8.10;7.30;;;16.30;48.20;;;;;;5036919;28;20195;-79
2023/04/21 03:17:19;;;;;;;8.85;7.95;;;16.30;48.40;;;;;;5037192;28;20207;-79
2023/04/21 03:19:47;;;;;;;9.85;8.75;;;16.30;48.60;;;;;;5021088;28;20200;-79
2023/04/21 03:22:15;;;;;;;8.35;7.55;;;16.30;48.70;;;;;;5037223;28;20215;-79
2023/04/21 03:24:42;;;;;;;7.60;6.90;;;16.30;48.90;;;;;;5037147;28;20203;-79
2023/04/21 03:27:10;;;;;;;7.85;7.05;;;16.20;48.90;;;;;;5036878;28;20199;-79
2023/04/21 03:29:37;;;;;;;8.63;7.53;;;16.20;49.50;;;;;;5037039;28;20199;-79
2023/04/21 03:32:04;;;;;;;8.30;7.45;;;16.10;49.00;;;;;;5036906;28;20655;-80
2023/04/21 03:34:31;;;;;;;9.02;7.93;;;16.20;49.10;;;;;;5037220;28;20646;-80
2023/04/21 03:37:02;;;;;;;8.30;7.40;;;16.20;49.20;;;;;;5037463;28;20282;-80
2023/04/21 03:39:31;;;;;;;8.18;7.43;;;16.10;49.50;;;;;;5037397;28;20208;-80
2023/04/21 03:42:00;;;;;;;8.13;7.32;;;16.20;48.90;;;;;;5037795;28;20283;-81
2023/04/21 03:44:29;;;;;;;9.02;8.13;;;16.20;48.80;;;;;;5037086;28;20286;-80
2023/04/21 03:46:56;;;;;;;9.10;7.55;;;16.30;48.60;;;;;;5036645;28;20203;-81
2023/04/21 03:49:24;;;;;;;8.75;7.90;;;16.30;48.30;;;;;;5036656;28;20248;-80
2023/04/21 03:51:51;;;;;;;8.40;7.50;;;16.30;48.40;;;;;;5037331;28;20215;-80
2023/04/21 03:54:18;;;;;;;7.97;7.18;;;16.30;48.40;;;;;;5036851;28;20202;-80
2023/04/21 03:56:47;;;;;;;8.48;7.60;;;16.30;48.30;;;;;;5036771;28;20203;-80
2023/04/21 03:59:14;;;;;;;8.45;7.65;;;16.30;48.10;;;;;;5039118;28;20261;-81
2023/04/21 04:01:42;;;;;;;8.48;7.68;;;16.40;48.10;;;;;;5040560;28;20195;-81
2023/04/21 04:04:10;;;;;;;8.50;7.70;;;16.40;47.80;;;;;;5036144;28;20283;-81
2023/04/21 04:06:37;;;;;;;8.45;7.57;;;16.40;47.90;;;;;;5024684;28;20191;-80
2023/04/21 04:09:04;;;;;;;8.32;7.53;;;16.40;47.70;;;;;;5039251;28;20564;-81
2023/04/21 04:11:31;;;;;;;7.97;7.13;;;16.50;47.80;;;;;;5038774;28;20227;-80
2023/04/21 04:13:59;;;;;;;8.18;7.38;;;16.50;47.80;;;;;;5038438;28;20216;-81
2023/04/21 04:16:27;;;;;;;8.20;7.40;;;16.50;47.60;;;;;;5039469;28;20207;-80
2023/04/21 04:18:55;;;;;;;9.00;8.02;;;16.50;47.50;;;;;;5039706;28;20360;-80
2023/04/21 04:21:22;;;;;;;7.65;6.95;;;16.50;47.50;;;;;;5040941;28;20203;-80
2023/04/21 04:23:51;;;;;;;7.47;6.72;;;16.50;47.50;;;;;;5043917;28;20397;-80
2023/04/21 04:26:18;;;;;;;7.72;7.03;;;16.50;47.50;;;;;;5044407;28;20286;-80
2023/04/21 04:28:46;;;;;;;7.68;6.78;;;16.50;47.50;;;;;;5043624;28;20206;-80
2023/04/21 04:31:16;;;;;;;8.30;7.35;;;16.50;47.50;;;;;;5043067;28;20207;-80
2023/04/21 04:33:43;;;;;;;8.10;7.30;;;16.50;47.40;;;;;;5043323;28;20238;-80
2023/04/21 04:36:10;;;;;;;8.15;7.35;;;16.50;48.00;;;;;;5043309;28;20192;-80
2023/04/21 04:38:38;;;;;;;7.93;7.07;;;16.50;47.50;;;;;;5042889;28;20200;-80
2023/04/21 04:41:07;;;;;;;7.90;7.10;;;16.60;47.40;;;;;;5041564;28;20225;-80
2023/04/21 04:43:37;;;;;;;7.22;6.53;;;16.60;47.40;;;;;;5040200;28;20230;-80
2023/04/21 04:46:07;;;;;;;7.55;6.85;;;16.60;47.50;;;;;;5040124;28;20200;-80
2023/04/21 04:48:36;;;;;;;7.90;7.07;;;16.60;47.40;;;;;;5039617;28;20204;-80
2023/04/21 04:51:04;;;;;;;7.53;6.78;;;16.60;47.30;;;;;;5024455;28;20199;-80
2023/04/21 04:53:31;;;;;;;7.70;7.00;;;16.60;47.30;;;;;;5023690;28;20226;-80
2023/04/21 04:55:59;;;;;;;7.70;7.00;;;16.70;47.40;;;;;;5040275;28;20210;-79
2023/04/21 04:58:26;;;;;;;7.30;6.60;;;16.60;47.10;;;;;;5040219;28;20192;-80
2023/04/21 05:00:53;;;;;;;7.10;6.40;;;16.70;47.40;;;;;;5040101;28;20203;-81
2023/04/21 05:03:20;;;;;;;7.40;6.70;;;16.70;47.50;;;;;;5039999;28;20222;-80
2023/04/21 05:05:49;;;;;;;7.07;6.10;;;16.60;47.30;;;;;;5039267;28;20708;-82
2023/04/21 05:08:16;;;;;;;7.78;6.93;;;16.70;47.50;;;;;;5023558;28;20195;-82
2023/04/21 05:10:43;;;;;;;7.78;7.05;;;16.70;47.10;;;;;;5040416;28;20191;-82
2023/04/21 05:13:10;;;;;;;7.13;6.43;;;16.80;47.30;;;;;;5039320;28;20230;-82
2023/04/21 05:15:37;;;;;;;8.25;7.45;;;16.80;47.30;;;;;;5039254;28;20294;-82
2023/04/21 05:18:06;;;;;;;8.35;6.95;;;16.80;47.20;;;;;;5040384;28;20286;-83
2023/04/21 05:20:33;;;;;;;7.43;6.72;;;16.80;47.40;;;;;;5023321;28;20206;-83
2023/04/21 05:23:02;;;;;;;6.90;6.30;;;16.80;47.60;;;;;;5039056;28;20234;-82
2023/04/21 05:25:29;;;;;;;8.35;7.32;;;16.80;47.50;;;;;;5039083;28;20196;-82
2023/04/21 05:27:56;;;;;;;8.95;7.25;;;16.70;47.50;;;;;;5039633;28;20253;-82
2023/04/21 05:30:23;;;;;;;7.88;7.18;;;16.80;47.60;;;;;;5039319;28;20192;-83
2023/04/21 05:32:51;;;;;;;8.65;7.68;;;16.80;47.60;;;;;;5038892;28;20235;-83
2023/04/21 05:35:18;;;;;;;7.35;6.65;;;16.80;47.60;;;;;;5039447;28;20658;-83
2023/04/21 05:37:45;;;;;;;7.55;6.85;;;16.90;47.70;;;;;;5040154;28;20195;-82
2023/04/21 05:40:14;;;;;;;7.78;7.07;;;16.90;47.70;;;;;;5039143;28;20199;-83
2023/04/21 05:42:41;;;;;;;8.23;7.03;;;16.90;47.70;;;;;;5039050;28;20678;-83
2023/04/21 05:45:08;;;;;;;7.80;7.10;;;16.90;47.80;;;;;;5040191;28;20203;-82
2023/04/21 05:47:36;;;;;;;7.88;7.18;;;17.00;47.70;;;;;;5039837;28;20208;-83
2023/04/21 05:50:03;;;;;;;7.50;6.80;;;17.00;47.60;;;;;;5023506;28;20210;-82
2023/04/21 05:52:30;;;;;;;7.85;7.05;;;17.10;47.60;;;;;;5040231;28;20703;-81
2023/04/21 05:54:58;;;;;;;7.85;7.05;;;17.10;47.60;;;;;;5040532;28;20225;-81
2023/04/21 05:57:26;;;;;;;6.78;6.07;;;17.10;47.50;;;;;;5039500;28;20195;-81
2023/04/21 05:59:54;;;;;;;7.13;6.53;;;17.20;47.80;;;;;;5039038;28;20550;-81
2023/04/21 06:02:20;;;;;;;7.07;6.38;;;17.20;48.20;;;;;;5023603;28;20639;-81
2023/04/21 06:04:48;;;;;;;6.78;6.07;;;17.30;47.40;;;;;;5039488;28;20206;-81
2023/04/21 06:07:16;;;;;;;6.57;5.97;;;17.40;47.30;;;;;;5023144;28;20258;-81
2023/04/21 06:09:44;;;;;;;6.43;5.82;;;17.40;47.10;;;;;;5023093;28;20195;-82
2023/04/21 06:12:11;;;;;;;6.35;5.68;;;17.50;46.90;;;;;;5039272;28;20195;-82
2023/04/21 06:14:39;;;;;;;7.65;6.85;;;17.50;46.90;;;;;;5039342;28;20210;-82
2023/04/21 06:17:06;;;;;;;6.90;6.30;;;17.70;46.70;;;;;;5039097;28;20630;-82
2023/04/21 06:19:38;;;;;;;6.72;5.93;;;17.70;46.70;;;;;;5039606;28;20222;-80
2023/04/21 06:22:04;;;;;;;6.72;6.13;;;17.70;46.60;;;;;;5038799;28;20192;-79
2023/04/21 06:24:32;;;;;;;7.30;6.65;;;17.70;46.30;;;;;;5039047;28;20588;-79
2023/04/21 06:26:59;;;;;;;7.07;6.38;;;17.80;46.40;;;;;;5038651;28;20200;-80
2023/04/21 06:29:26;;;;;;;7.03;6.32;;;17.90;46.40;;;;;;5039009;28;20306;-80
2023/04/21 06:31:55;;;;;;;6.70;6.00;;;17.90;46.30;;;;;;5038573;28;20195;-80
2023/04/21 06:34:22;;;;;;;6.50;5.90;;;18.00;46.40;;;;;;5038600;28;20258;-79
2023/04/21 06:36:50;;;;;;;6.13;5.63;;;18.10;46.30;;;;;;5046181;28;20196;-80
2023/04/21 06:39:17;;;;;;;6.40;5.80;;;18.20;46.20;;;;;;5038757;28;20211;-80
2023/04/21 06:41:44;;;;;;;6.80;6.20;;;18.40;46.10;;;;;;5038255;28;20245;-80
2023/04/21 06:44:12;;;;;;;7.15;6.45;;;18.50;45.50;;;;;;5037123;28;20254;-80
2023/04/21 06:46:40;;;;;;;6.22;5.63;;;18.60;45.30;;;;;;5021899;28;20203;-80
2023/04/21 06:49:09;;;;;;;7.22;6.22;;;18.70;45.30;;;;;;5037820;28;20195;-80
2023/04/21 06:51:36;;;;;;;6.70;6.10;;;18.80;45.10;;;;;;5037609;28;20238;-80
2023/04/21 06:54:04;;;;;;;6.60;5.97;;;18.80;44.90;;;;;;5037689;28;20215;-80
2023/04/21 06:56:32;;;;;;;6.60;6.00;;;18.80;44.80;;;;;;5037518;28;20196;-80
2023/04/21 06:58:59;;;;;;;7.55;6.45;;;18.80;44.80;;;;;;5037419;28;20206;-80
2023/04/21 07:01:26;;;;;;;6.85;6.15;;;18.90;44.70;;;;;;5037706;28;20250;-80
2023/04/21 07:03:53;;;;;;;6.97;6.28;;;18.90;44.60;;;;;;5037362;28;20219;-80
2023/04/21 07:06:32;;;;;;;6.60;6.00;;;18.90;45.40;;;;;;5055336;28;20207;-80
2023/04/21 07:08:59;;;;;;;7.22;6.25;;;18.90;44.80;;;;;;5037304;28;20236;-79
2023/04/21 07:11:27;;;;;;;6.90;6.30;;;18.90;44.80;;;;;;5039873;28;20202;-79
2023/04/21 07:13:54;;;;;;;6.22;5.70;;;18.90;44.80;;;;;;5038319;28;20215;-80
2023/04/21 07:16:23;;;;;;;6.28;5.68;;;18.90;44.80;;;;;;5037469;28;20195;-80
2023/04/21 07:18:50;;;;;;;6.55;5.95;;;18.80;44.70;;;;;;5037001;28;20199;-80
2023/04/21 07:21:18;;;;;;;8.38;6.10;;;18.90;44.80;;;;;;5036993;28;20195;-80
2023/04/21 07:23:46;;;;;;;6.80;6.10;;;18.90;44.80;;;;;;5036782;28;20314;-80
2023/04/21 07:26:13;;;;;;;6.43;5.82;;;18.90;44.80;;;;;;5036942;28;20249;-80
2023/04/21 07:28:40;;;;;;;6.25;5.65;;;19.00;44.70;;;;;;5037329;28;20199;-80
2023/04/21 07:31:07;;;;;;;5.68;5.18;;;19.00;44.70;;;;;;5036627;28;20227;-80
2023/04/21 07:33:34;;;;;;;5.90;5.40;;;19.00;44.60;;;;;;5036745;28;20227;-80
2023/04/21 07:36:01;;;;;;;5.82;5.20;;;19.10;44.50;;;;;;5036866;28;20200;-80
2023/04/21 07:38:28;;;;;;;6.00;5.50;;;19.10;44.40;;;;;;5036782;28;20670;-80
2023/04/21 07:40:57;;;;;;;6.30;5.63;;;19.10;44.20;;;;;;5036927;28;20248;-80
2023/04/21 07:43:25;;;;;;;6.05;5.43;;;19.10;44.20;;;;;;5036794;28;20211;-80
2023/04/21 07:45:52;;;;;;;5.65;5.15;;;19.10;44.20;;;;;;5036573;28;20190;-80
2023/04/21 07:48:20;;;;;;;5.78;5.28;;;19.20;44.40;;;;;;5036559;28;20210;-80
2023/04/21 07:50:47;;;;;;;5.88;5.35;;;19.30;44.40;;;;;;5020771;28;20195;-80
2023/04/21 07:53:14;;;;;;;5.53;5.03;;;19.30;44.20;;;;;;5037600;28;20222;-80
2023/04/21 07:55:41;;;;;;;5.20;4.72;;;19.40;44.20;;;;;;5036541;28;20207;-80
2023/04/21 07:58:10;;;;;;;5.80;5.10;;;19.40;44.10;;;;;;5037254;28;20571;-80
2023/04/21 08:00:37;;;;;;;5.88;5.38;;;19.50;44.10;;;;;;5020730;28;20206;-79
2023/04/21 08:03:04;;;;;;;7.53;5.88;;;19.50;43.90;;;;;;5037289;28;20215;-79
2023/04/21 08:05:31;;;;;;;5.80;5.30;;;19.60;43.90;;;;;;5020532;28;20537;-79
2023/04/21 08:07:58;;;;;;;6.22;5.63;;;19.60;43.90;;;;;;5037405;28;20200;-80
2023/04/21 08:10:26;;;;;;;6.75;5.78;;;19.60;43.70;;;;;;5037364;28;20202;-78
2023/04/21 08:12:53;;;;;;;6.20;5.60;;;19.70;43.60;;;;;;5037366;28;20219;-78
2023/04/21 08:15:22;;;;;;;6.10;5.50;;;19.70;43.50;;;;;;5020507;28;20273;-78
2023/04/21 08:17:49;;;;;;;5.70;5.00;;;19.80;43.50;;;;;;5036271;28;20226;-78
2023/04/21 08:20:16;;;;;;;5.45;4.95;;;20.00;43.10;;;;;;5020651;28;20199;-78
2023/04/21 08:22:43;;;;;;;5.70;5.20;;;20.10;43.00;;;;;;5036499;28;20681;-79
2023/04/21 08:25:11;;;;;;;5.88;5.38;;;20.30;42.80;;;;;;5020581;28;20202;-79
2023/04/21 08:27:38;;;;;;;6.93;5.60;;;20.50;42.50;;;;;;5037040;28;20265;-79
2023/04/21 08:30:07;;;;;;;6.35;5.72;;;20.60;42.30;;;;;;5020533;28;20627;-79
2023/04/21 08:32:36;;;;;;;6.50;5.90;;;20.80;42.00;;;;;;5036978;28;20222;-79
2023/04/21 08:35:02;;;;;;;6.10;5.45;;;21.00;41.90;;;;;;5054655;28;20211;-79
2023/04/21 08:37:30;;;;;;;6.15;5.50;;;21.10;41.50;;;;;;5036746;28;20595;-79
2023/04/21 08:39:57;;;;;;;6.20;5.43;;;21.30;41.30;;;;;;5037094;28;20276;-79
2023/04/21 08:42:23;;;;;;;5.32;4.82;;;21.40;40.90;;;;;;5036287;28;20215;-79
2023/04/21 08:44:51;;;;;;;5.70;5.20;;;21.60;40.60;;;;;;5036633;28;20199;-79
2023/04/21 08:47:19;;;;;;;4.05;3.65;;;21.70;40.70;;;;;;5019480;28;20671;-80
2023/04/21 08:49:47;;;;;;;4.38;3.60;;;21.80;40.40;;;;;;5036320;28;20251;-80
2023/04/21 08:52:14;;;;;;;4.32;4.00;;;21.90;40.10;;;;;;5035943;28;20558;-80
2023/04/21 08:54:42;;;;;;;4.03;3.67;;;22.00;40.00;;;;;;5035684;28;20223;-80
2023/04/21 08:57:09;;;;;;;4.07;3.67;;;22.10;39.80;;;;;;5036000;28;20795;-80
2023/04/21 08:59:36;;;;;;;4.22;3.50;;;22.10;39.70;;;;;;5035875;28;20298;-80
2023/04/21 09:02:10;;;;;;;4.20;3.90;;;22.20;39.50;;;;;;5035636;28;20196;-80
2023/04/21 09:04:41;;;;;;;5.18;4.00;;;22.30;39.50;;;;;;5035402;28;20192;-80
2023/04/21 09:07:09;;;;;;;3.55;3.25;;;22.40;39.30;;;;;;5036275;28;20203;-80
2023/04/21 09:09:52;;;;;;;3.65;3.35;;;22.40;39.30;;;;;;5040102;28;20187;-80
2023/04/21 09:12:20;;;;;;;4.07;3.50;;;22.50;39.10;;;;;;5040071;28;20215;-80
2023/04/21 09:14:47;;;;;;;3.63;3.28;;;22.60;39.10;;;;;;5039492;28;20743;-80
2023/04/21 09:17:15;;;;;;;3.30;3.00;;;22.60;38.90;;;;;;5039421;28;20248;-80
2023/04/21 09:19:43;;;;;;;3.67;3.13;;;22.60;38.70;;;;;;5039723;28;20265;-80
2023/04/21 09:22:16;;;;;;;3.40;3.10;;;22.70;38.80;;;;;;5057143;28;20198;-80
2023/04/21 09:24:46;;;;;;;3.50;3.20;;;22.70;38.80;;;;;;5023057;28;20192;-80
2023/04/21 09:27:15;;;;;;;3.55;3.25;;;22.70;38.80;;;;;;5039206;28;20547;-80
2023/04/21 09:29:47;;;;;;;3.13;2.83;;;22.60;38.70;;;;;;5022770;28;20289;-80
2023/04/21 09:32:17;;;;;;;3.58;3.28;;;22.70;38.80;;;;;;5040396;28;20256;-80
2023/04/21 09:34:44;;;;;;;3.28;2.97;;;22.70;39.50;;;;;;5039198;28;20283;-80
2023/04/21 09:37:13;;;;;;;2.95;2.67;;;22.70;38.80;;;;;;5057375;28;20203;-80
2023/04/21 09:39:44;;;;;;;3.40;3.10;;;22.70;38.80;;;;;;5038568;28;20195;-80
2023/04/21 09:42:12;;;;;;;3.75;3.30;;;22.80;38.90;;;;;;5038639;28;20301;-78
2023/04/21 09:44:39;;;;;;;3.50;3.20;;;22.80;38.80;;;;;;5039204;28;20200;-78
2023/04/21 09:47:06;;;;;;;3.40;3.10;;;22.80;38.60;;;;;;5038894;28;20207;-78
2023/04/21 09:49:35;;;;;;;3.38;3.08;;;22.80;38.70;;;;;;5038270;28;20225;-78
2023/04/21 09:52:03;;;;;;;3.47;3.17;;;22.80;38.80;;;;;;5038541;28;20218;-78
2023/04/21 09:54:33;;;;;;;3.25;2.90;;;22.80;38.70;;;;;;5038282;28;20789;-78
2023/04/21 09:57:01;;;;;;;3.30;3.00;;;22.90;38.80;;;;;;5038326;28;20254;-78
2023/04/21 09:59:30;;;;;;;3.55;3.20;;;22.90;38.70;;;;;;5038375;28;20265;-78
2023/04/21 10:01:58;;;;;;;2.83;2.63;;;22.90;38.70;;;;;;5038250;28;20204;-78
2023/04/21 10:04:25;;;;;;;2.88;2.67;;;22.90;38.70;;;;;;5038706;28;20202;-78
2023/04/21 10:06:52;;;;;;;3.33;3.00;;;22.90;38.90;;;;;;5056049;28;20555;-78
2023/04/21 10:09:21;;;;;;;2.67;2.47;;;22.90;39.00;;;;;;5055995;28;20195;-78
2023/04/21 10:11:50;;;;;;;3.90;3.00;;;22.90;39.00;;;;;;5038356;28;20212;-78
2023/04/21 10:14:17;;;;;;;2.97;2.78;;;22.80;38.90;;;;;;5038564;28;20215;-78
2023/04/21 10:16:49;;;;;;;2.90;2.70;;;22.80;38.90;;;;;;5040852;28;20234;-78
2023/04/21 10:19:27;;;;;;;2.90;2.70;;;22.80;38.80;;;;;;5038962;28;20195;-78
2023/04/21 10:21:55;;;;;;;2.80;2.60;;;22.80;38.80;;;;;;5040109;28;20206;-78
2023/04/21 10:24:22;;;;;;;3.03;2.78;;;22.90;38.70;;;;;;5038042;28;20217;-78
2023/04/21 10:26:51;;;;;;;2.67;2.47;;;22.80;38.80;;;;;;5038511;28;20199;-78
2023/04/21 10:29:28;;;;;;;3.00;2.72;;;22.80;38.90;;;;;;5038590;28;20202;-78
2023/04/21 10:31:55;;;;;;;2.85;2.65;;;22.80;38.80;;;;;;5037366;28;20215;-77
2023/04/21 10:34:28;;;;;;;3.05;2.85;;;22.80;38.60;;;;;;5037294;28;20238;-77
2023/04/21 10:37:18;;;;;;;2.83;2.63;;;22.90;38.70;;;;;;5021055;28;20211;-77
2023/04/21 10:39:47;;;;;;;2.60;2.40;;;22.90;38.70;;;;;;5022293;28;20597;-77
2023/04/21 10:42:35;;;;;;;2.90;2.70;;;22.90;38.70;;;;;;5037729;28;20215;-77
2023/04/21 10:45:12;;;;;;;2.90;2.70;;;22.90;38.80;;;;;;5037185;28;20650;-77
2023/04/21 10:47:44;;;;;;;2.80;2.60;;;22.90;38.70;;;;;;5054965;28;20571;-77
2023/04/21 10:50:13;;;;;;;2.72;2.53;;;22.90;38.70;;;;;;5037515;28;20230;-77
2023/04/21 10:52:43;;;;;;;3.00;2.80;;;22.90;38.80;;;;;;5037034;28;20226;-77
2023/04/21 10:55:11;;;;;;;2.88;2.67;;;22.90;38.70;;;;;;5036987;28;20215;-77
2023/04/21 10:57:42;;;;;;;3.00;2.80;;;22.80;38.70;;;;;;5037011;28;20209;-77
2023/04/21 11:00:10;;;;;;;3.15;2.92;;;22.80;38.80;;;;;;5036878;28;20198;-77
2023/04/21 11:02:37;;;;;;;2.80;2.60;;;22.70;38.80;;;;;;5036862;28;20223;-77
2023/04/21 11:05:05;;;;;;;2.80;2.60;;;22.70;38.80;;;;;;5037055;28;20196;-77
2023/04/21 11:07:32;;;;;;;3.25;2.95;;;22.70;38.80;;;;;;5036847;28;20203;-77
2023/04/21 11:10:00;;;;;;;2.85;2.65;;;22.60;38.70;;;;;;5036950;28;20199;-77
2023/04/21 11:12:28;;;;;;;3.10;2.80;;;22.60;38.80;;;;;;5020093;28;20219;-77
2023/04/21 11:14:56;;;;;;;3.33;3.03;;;22.60;39.00;;;;;;5036526;28;20212;-77
2023/04/21 11:17:24;;;;;;;3.05;2.72;;;22.60;39.10;;;;;;5036853;28;20704;-77
2023/04/21 11:19:52;;;;;;;2.88;2.67;;;22.60;39.20;;;;;;5037784;28;20210;-77
2023/04/21 11:22:19;;;;;;;2.88;2.67;;;22.50;39.20;;;;;;5036771;28;20269;-77
2023/04/21 11:24:47;;;;;;;2.85;2.65;;;22.50;39.30;;;;;;5020339;28;20245;-77
2023/04/21 11:27:15;;;;;;;2.90;2.70;;;22.50;39.30;;;;;;5054331;28;20194;-77
2023/04/21 11:29:42;;;;;;;2.70;2.50;;;22.50;39.30;;;;;;5036087;28;20207;-77
2023/04/21 11:32:11;;;;;;;2.85;2.55;;;22.50;39.40;;;;;;5036367;28;20188;-77
2023/04/21 11:34:38;;;;;;;2.72;2.53;;;22.50;39.50;;;;;;5036145;28;20238;-77
2023/04/21 11:37:06;;;;;;;2.80;2.60;;;22.40;39.50;;;;;;5036487;28;20566;-77
2023/04/21 11:39:33;;;;;;;2.92;2.72;;;22.40;39.60;;;;;;5036689;28;20199;-77
2023/04/21 11:42:01;;;;;;;2.83;2.63;;;22.40;39.70;;;;;;5036647;28;20203;-77
2023/04/21 11:44:35;;;;;;;2.90;2.60;;;22.40;39.70;;;;;;5036299;28;20222;-77
2023/04/21 11:47:13;;;;;;;2.83;2.63;;;22.30;40.30;;;;;;5036717;28;20199;-77
2023/04/21 11:49:45;;;;;;;2.70;2.50;;;22.40;39.90;;;;;;5035992;28;20195;-77
2023/04/21 11:52:12;;;;;;;3.00;2.80;;;22.40;39.90;;;;;;5035956;28;20219;-76
2023/04/21 11:54:39;;;;;;;2.70;2.50;;;22.40;39.90;;;;;;5036016;28;20644;-76
2023/04/21 11:57:06;;;;;;;2.83;2.63;;;22.30;39.80;;;;;;5019557;28;20828;-76
2023/04/21 11:59:33;;;;;;;2.90;2.70;;;22.30;39.90;;;;;;5035835;28;20569;-76
2023/04/21 12:02:00;;;;;;;2.63;2.42;;;22.30;40.00;;;;;;5020129;28;20201;-76
2023/04/21 12:04:28;;;;;;;2.60;2.40;;;22.30;40.00;;;;;;5035919;28;20206;-76
2023/04/21 12:06:57;;;;;;;2.40;2.20;;;22.30;40.10;;;;;;5035906;28;20256;-76
2023/04/21 12:09:24;;;;;;;2.80;2.60;;;22.30;40.10;;;;;;5036984;28;20269;-76
2023/04/21 12:11:52;;;;;;;2.53;2.33;;;22.30;40.10;;;;;;5035651;28;20203;-76
2023/04/21 12:14:20;;;;;;;2.70;2.50;;;22.30;40.20;;;;;;5036054;28;20215;-76
2023/04/21 12:16:49;;;;;;;2.72;2.53;;;22.30;40.20;;;;;;5036279;28;20302;-76
2023/04/21 12:19:22;;;;;;;2.60;2.40;;;22.30;40.30;;;;;;5036380;28;20191;-76
2023/04/21 12:21:55;;;;;;;2.70;2.50;;;22.20;40.20;;;;;;5020026;28;20194;-76
2023/04/21 12:24:22;;;;;;;2.70;2.50;;;22.20;40.20;;;;;;5019632;28;20188;-76
2023/04/21 12:26:49;;;;;;;2.80;2.60;;;22.20;40.30;;;;;;5035860;28;20206;-78
2023/04/21 12:29:16;;;;;;;2.70;2.50;;;22.20;40.40;;;;;;5035578;28;20620;-77
2023/04/21 12:31:43;;;;;;;2.50;2.30;;;22.20;40.60;;;;;;5019197;28;20757;-77
2023/04/21 12:34:10;;;;;;;2.55;2.35;;;22.10;40.60;;;;;;5035314;28;20226;-77
2023/04/21 12:36:37;;;;;;;2.30;2.20;;;22.10;40.60;;;;;;5019342;28;20191;-77
2023/04/21 12:39:06;;;;;;;2.47;2.28;;;22.10;40.80;;;;;;5036236;28;20196;-77
2023/04/21 12:41:34;;;;;;;3.35;2.58;;;22.10;40.60;;;;;;5035356;28;20207;-77
2023/04/21 12:44:01;;;;;;;2.78;2.58;;;22.10;40.70;;;;;;5039155;28;20589;-77
2023/04/21 12:46:27;;;;;;;2.70;2.50;;;22.20;40.70;;;;;;5039432;28;20261;-77
2023/04/21 12:48:54;;;;;;;2.40;2.20;;;22.20;40.70;;;;;;5039463;28;20199;-77
2023/04/21 12:51:22;;;;;;;2.55;2.35;;;22.20;40.70;;;;;;5039401;28;20195;-77